createdAt,value
2023-01-10T00:00:29.198Z,1.75
2023-01-10T00:02:56.426Z,1.58
2023-01-10T00:05:23.533Z,1.77
2023-01-10T00:07:50.662Z,2.13
2023-01-10T00:10:17.747Z,1.67
2023-01-10T00:13:03.750Z,1.40
2023-01-10T00:18:00.841Z,1.58
2023-01-10T00:20:27.977Z,1.90
2023-01-10T00:22:55.101Z,1.88
2023-01-10T00:25:22.684Z,1.50
2023-01-10T00:27:53.777Z,1.80
2023-01-10T00:30:21.030Z,1.77
2023-01-10T00:32:48.143Z,1.60
2023-01-10T00:35:15.259Z,1.30
2023-01-10T00:37:42.481Z,1.55
2023-01-10T00:40:11.124Z,1.40
2023-01-10T00:42:57.026Z,1.70
2023-01-10T00:45:25.099Z,1.35
2023-01-10T00:47:52.355Z,1.90
2023-01-10T00:50:19.543Z,1.48
2023-01-10T00:52:46.690Z,1.83
2023-01-10T00:55:13.808Z,2.08
2023-01-10T00:57:40.902Z,1.50
2023-01-10T01:00:09.281Z,1.55
2023-01-10T01:02:36.888Z,1.77
2023-01-10T01:05:04.574Z,1.58
2023-01-10T01:07:31.726Z,2.10
2023-01-10T01:10:28.089Z,2.08
2023-01-10T01:12:56.212Z,2.13
2023-01-10T01:15:23.504Z,2.10
2023-01-10T01:17:50.633Z,1.42
2023-01-10T01:20:17.904Z,1.63
2023-01-10T01:22:44.979Z,1.67
2023-01-10T01:25:12.162Z,1.52
2023-01-10T01:27:39.270Z,1.73
2023-01-10T01:30:07.541Z,1.65
2023-01-10T01:32:34.769Z,1.60
2023-01-10T01:35:02.183Z,1.90
2023-01-10T01:37:29.331Z,1.52
2023-01-10T01:39:56.445Z,1.85
2023-01-10T01:42:27.967Z,1.98
2023-01-10T01:45:11.103Z,1.75
2023-01-10T01:47:38.147Z,1.20
2023-01-10T01:50:06.275Z,1.92
2023-01-10T01:52:37.238Z,1.83
2023-01-10T01:55:05.381Z,1.70
2023-01-10T01:57:33.428Z,1.60
2023-01-10T02:00:01.705Z,1.80
2023-01-10T02:02:53.960Z,1.80
2023-01-10T02:05:28.789Z,1.48
2023-01-10T02:07:58.702Z,1.70
2023-01-10T02:10:30.645Z,1.00
2023-01-10T02:13:00.787Z,1.77
2023-01-10T02:15:28.043Z,1.52
2023-01-10T02:17:55.232Z,1.48
2023-01-10T02:20:23.262Z,1.80
2023-01-10T02:22:56.463Z,1.70
2023-01-10T02:25:35.535Z,1.50
2023-01-10T02:28:20.662Z,1.30
2023-01-10T02:30:50.914Z,1.48
2023-01-10T02:33:30.827Z,1.52
2023-01-10T02:36:01.010Z,1.60
2023-01-10T02:38:28.275Z,2.10
2023-01-10T02:41:15.514Z,1.70
2023-01-10T02:43:48.095Z,1.85
2023-01-10T02:46:24.914Z,1.95
2023-01-10T02:48:53.809Z,1.60
2023-01-10T02:51:22.387Z,1.90
2023-01-10T02:53:53.522Z,1.33
2023-01-10T02:56:20.615Z,1.55
2023-01-10T02:58:53.496Z,1.40
2023-01-10T03:01:35.733Z,2.20
2023-01-10T03:04:39.988Z,1.92
2023-01-10T03:07:14.111Z,2.05
2023-01-10T03:09:55.083Z,1.85
2023-01-10T03:12:28.265Z,1.25
2023-01-10T03:14:56.593Z,1.90
2023-01-10T03:17:24.677Z,1.45
2023-01-10T03:19:54.594Z,1.88
2023-01-10T03:22:21.897Z,1.63
2023-01-10T03:24:50.170Z,2.03
2023-01-10T03:27:22.316Z,1.90
2023-01-10T03:29:53.140Z,1.70
2023-01-10T03:32:23.303Z,1.20
2023-01-10T03:34:50.645Z,1.67
2023-01-10T03:37:20.714Z,1.63
2023-01-10T03:39:53.971Z,1.90
2023-01-10T03:44:55.801Z,1.30
2023-01-10T03:47:25.956Z,1.70
2023-01-10T03:49:57.621Z,1.80
2023-01-10T03:52:25.747Z,2.25
2023-01-10T03:54:53.872Z,1.88
2023-01-10T03:57:24.809Z,1.52
2023-01-10T03:59:59.564Z,2.17
2023-01-10T04:02:28.148Z,1.67
2023-01-10T04:04:55.257Z,1.92
2023-01-10T04:07:22.391Z,2.05
2023-01-10T04:09:49.679Z,2.15
2023-01-10T04:12:16.867Z,2.10
2023-01-10T04:14:46.645Z,1.88
2023-01-10T04:17:15.053Z,2.13
2023-01-10T04:19:42.284Z,1.98
2023-01-10T04:22:09.788Z,1.92
2023-01-10T04:24:36.964Z,1.90
2023-01-10T04:27:04.431Z,1.98
2023-01-10T04:29:31.478Z,2.10
2023-01-10T04:31:58.603Z,2.55
2023-01-10T04:34:25.784Z,2.00
2023-01-10T04:36:52.868Z,2.45
2023-01-10T04:39:19.915Z,1.70
2023-01-10T04:41:47.030Z,1.80
2023-01-10T04:44:14.229Z,1.85
2023-01-10T04:46:41.306Z,1.75
2023-01-10T04:49:09.930Z,1.52
2023-01-10T04:51:37.054Z,2.22
2023-01-10T04:54:04.467Z,2.15
2023-01-10T04:56:31.551Z,2.70
2023-01-10T04:58:58.644Z,2.10
2023-01-10T05:01:26.628Z,2.22
2023-01-10T05:03:55.119Z,1.92
2023-01-10T05:06:23.527Z,2.08
2023-01-10T05:08:50.594Z,1.70
2023-01-10T05:11:17.683Z,1.90
2023-01-10T05:13:46.570Z,2.58
2023-01-10T05:16:15.042Z,2.15
2023-01-10T05:18:42.213Z,2.38
2023-01-10T05:21:10.543Z,1.42
2023-01-10T05:23:38.040Z,1.73
2023-01-10T05:26:06.500Z,2.38
2023-01-10T05:28:33.641Z,1.70
2023-01-10T05:31:00.768Z,1.90
2023-01-10T05:33:28.076Z,3.63
2023-01-10T05:35:55.369Z,2.95
2023-01-10T05:38:22.507Z,2.67
2023-01-10T05:40:49.640Z,2.17
2023-01-10T05:43:16.756Z,2.40
2023-01-10T05:45:43.912Z,2.40
2023-01-10T05:48:11.056Z,2.92
2023-01-10T05:50:38.126Z,2.33
2023-01-10T05:53:05.859Z,2.42
2023-01-10T05:55:33.132Z,2.45
2023-01-10T05:58:00.593Z,2.20
2023-01-10T06:00:27.665Z,2.00
2023-01-10T06:02:55.485Z,1.95
2023-01-10T06:05:23.187Z,2.35
2023-01-10T06:07:50.334Z,2.42
2023-01-10T06:10:17.778Z,2.15
2023-01-10T06:12:44.937Z,2.30
2023-01-10T06:15:12.174Z,2.30
2023-01-10T06:17:39.300Z,2.05
2023-01-10T06:20:06.615Z,2.33
2023-01-10T06:22:33.655Z,2.70
2023-01-10T06:25:02.482Z,2.42
2023-01-10T06:27:29.771Z,2.03
2023-01-10T06:29:56.954Z,2.75
2023-01-10T06:32:24.049Z,2.25
2023-01-10T06:34:51.150Z,2.08
2023-01-10T06:37:20.151Z,2.08
2023-01-10T06:39:47.454Z,1.98
2023-01-10T06:42:14.906Z,2.35
2023-01-10T06:44:42.043Z,2.55
2023-01-10T06:47:09.155Z,2.03
2023-01-10T06:49:36.291Z,2.03
2023-01-10T06:52:03.463Z,2.80
2023-01-10T06:54:30.531Z,2.50
2023-01-10T06:56:57.662Z,2.30
2023-01-10T06:59:24.800Z,2.58
2023-01-10T07:01:52.239Z,1.80
2023-01-10T07:04:19.509Z,2.15
2023-01-10T07:06:46.560Z,2.97
2023-01-10T07:09:13.695Z,2.20
2023-01-10T07:11:40.826Z,2.28
2023-01-10T07:14:09.693Z,2.88
2023-01-10T07:16:36.744Z,2.42
2023-01-10T07:19:03.804Z,2.42
2023-01-10T07:21:30.933Z,2.33
2023-01-10T07:23:58.101Z,3.10
2023-01-10T07:26:25.280Z,2.40
2023-01-10T07:28:52.389Z,2.53
2023-01-10T07:31:20.935Z,2.75
2023-01-10T07:33:48.195Z,2.25
2023-01-10T07:36:15.565Z,3.10
2023-01-10T07:38:42.793Z,3.10
2023-01-10T07:41:09.908Z,2.22
2023-01-10T07:43:36.992Z,2.42
2023-01-10T07:46:05.443Z,2.78
2023-01-10T07:48:32.768Z,2.08
2023-01-10T07:51:00.975Z,2.53
2023-01-10T07:53:40.761Z,2.75
2023-01-10T07:56:08.237Z,2.75
2023-01-10T07:58:35.557Z,2.88
2023-01-10T08:01:04.058Z,3.70
2023-01-10T08:03:33.237Z,3.33
2023-01-10T08:06:00.462Z,3.25
2023-01-10T08:08:27.730Z,2.80
2023-01-10T08:10:54.820Z,2.88
2023-01-10T08:13:21.902Z,2.88
2023-01-10T08:15:52.476Z,3.35
2023-01-10T08:18:20.797Z,2.92
2023-01-10T08:20:49.828Z,3.10
2023-01-10T08:23:17.313Z,3.67
2023-01-10T08:25:44.571Z,3.33
2023-01-10T08:28:11.711Z,2.67
2023-01-10T08:30:38.989Z,3.03
2023-01-10T08:33:07.015Z,3.78
2023-01-10T08:35:38.232Z,3.83
2023-01-10T08:38:05.637Z,3.13
2023-01-10T08:40:32.840Z,3.00
2023-01-10T08:43:00.738Z,3.83
2023-01-10T08:45:27.853Z,3.28
2023-01-10T08:47:55.014Z,3.03
2023-01-10T08:50:22.618Z,3.83
2023-01-10T08:52:51.114Z,3.05
2023-01-10T08:55:18.844Z,2.80
2023-01-10T08:57:45.927Z,2.83
2023-01-10T09:00:13.609Z,3.67
2023-01-10T09:02:41.239Z,3.15
2023-01-10T09:05:18.559Z,4.10
2023-01-10T09:07:53.572Z,3.97
2023-01-10T09:10:21.514Z,3.58
2023-01-10T09:12:54.677Z,3.63
2023-01-10T09:15:26.150Z,2.90
2023-01-10T09:17:57.252Z,3.05
2023-01-10T09:20:25.405Z,3.08
2023-01-10T09:22:52.888Z,3.45
2023-01-10T09:25:20.275Z,3.60
2023-01-10T09:27:47.632Z,4.07
2023-01-10T09:30:15.040Z,3.42
2023-01-10T09:32:42.217Z,2.78
2023-01-10T09:35:09.388Z,3.20
2023-01-10T09:37:37.927Z,2.83
2023-01-10T09:40:05.415Z,3.38
2023-01-10T09:42:43.219Z,2.83
2023-01-10T09:45:15.609Z,3.00
2023-01-10T09:48:03.261Z,3.03
2023-01-10T09:50:36.397Z,3.22
2023-01-10T09:53:06.019Z,3.33
2023-01-10T09:55:34.830Z,2.65
2023-01-10T09:58:04.822Z,3.08
2023-01-10T10:00:36.791Z,2.92
2023-01-10T10:03:06.366Z,2.80
2023-01-10T10:05:33.508Z,2.72
2023-01-10T10:08:05.016Z,3.78
2023-01-10T10:10:43.676Z,2.88
2023-01-10T10:13:14.072Z,3.08
2023-01-10T10:18:27.679Z,2.92
2023-01-10T10:21:01.449Z,2.95
2023-01-10T10:23:49.463Z,2.80
2023-01-10T10:26:34.789Z,2.70
2023-01-10T10:29:38.817Z,2.90
2023-01-10T10:32:39.739Z,2.58
2023-01-10T10:35:13.138Z,3.00
2023-01-10T10:37:46.510Z,2.92
2023-01-10T10:40:21.370Z,2.40
2023-01-10T10:42:50.919Z,2.47
2023-01-10T10:45:30.872Z,2.63
2023-01-10T10:48:00.441Z,2.38
2023-01-10T10:50:41.488Z,2.67
2023-01-10T10:53:10.325Z,2.83
2023-01-10T10:55:37.803Z,2.33
2023-01-10T10:58:05.910Z,2.38
2023-01-10T11:00:33.324Z,2.40
2023-01-10T11:03:00.432Z,2.75
2023-01-10T11:05:38.262Z,2.40
2023-01-10T11:08:24.512Z,2.55
2023-01-10T11:10:55.812Z,2.15
2023-01-10T11:13:29.000Z,2.25
2023-01-10T11:18:28.184Z,2.58
2023-01-10T11:21:00.191Z,3.22
2023-01-10T11:23:43.921Z,2.28
2023-01-10T11:26:35.836Z,3.00
2023-01-10T11:29:15.315Z,1.88
2023-01-10T11:31:42.580Z,2.15
2023-01-10T11:34:20.078Z,2.80
2023-01-10T11:36:54.374Z,3.03
2023-01-10T11:39:21.483Z,2.63
2023-01-10T11:41:49.279Z,2.40
2023-01-10T11:44:22.477Z,2.03
2023-01-10T11:46:50.256Z,1.80
2023-01-10T11:49:24.077Z,2.35
2023-01-10T11:51:52.660Z,2.42
2023-01-10T11:54:26.990Z,3.28
2023-01-10T11:56:56.979Z,2.40
2023-01-10T11:59:24.555Z,2.15
2023-01-10T12:01:57.240Z,2.35
2023-01-10T12:04:24.991Z,2.47
2023-01-10T12:06:54.261Z,2.17
2023-01-10T12:09:42.173Z,2.70
2023-01-10T12:12:21.020Z,2.38
2023-01-10T12:14:48.651Z,2.00
2023-01-10T12:17:27.644Z,2.72
2023-01-10T12:19:56.406Z,2.17
2023-01-10T12:22:27.492Z,2.10
2023-01-10T12:24:55.098Z,2.10
2023-01-10T12:27:24.434Z,1.95
2023-01-10T12:29:59.985Z,2.55
2023-01-10T12:32:29.185Z,2.30
2023-01-10T12:35:03.849Z,2.05
2023-01-10T12:37:30.971Z,1.80
2023-01-10T12:40:03.286Z,2.20
2023-01-10T12:43:02.866Z,2.28
2023-01-10T12:45:33.451Z,2.30
2023-01-10T12:48:04.907Z,2.88
2023-01-10T12:50:53.834Z,2.08
2023-01-10T12:53:38.927Z,2.47
2023-01-10T12:56:07.842Z,2.30
2023-01-10T12:58:38.194Z,2.25
2023-01-10T13:01:06.345Z,2.17
2023-01-10T13:03:35.069Z,2.05
2023-01-10T13:06:02.744Z,1.95
2023-01-10T13:08:32.629Z,2.42
2023-01-10T13:11:00.824Z,2.20
2023-01-10T13:13:35.196Z,2.08
2023-01-10T13:16:02.274Z,2.25
2023-01-10T13:18:30.619Z,2.67
2023-01-10T13:21:14.639Z,2.00
2023-01-10T13:23:49.391Z,2.50
2023-01-10T13:26:16.645Z,2.47
2023-01-10T13:28:59.999Z,2.20
2023-01-10T13:31:29.656Z,1.67
2023-01-10T13:33:59.640Z,2.45
2023-01-10T13:36:28.831Z,2.78
2023-01-10T13:39:03.305Z,2.50
2023-01-10T13:42:21.227Z,2.17
2023-01-10T13:45:03.478Z,2.15
2023-01-10T13:47:39.612Z,2.13
2023-01-10T13:50:36.307Z,1.90
2023-01-10T13:53:12.694Z,2.08
2023-01-10T13:55:39.871Z,2.20
2023-01-10T13:58:09.814Z,1.77
2023-01-10T14:00:55.872Z,2.47
2023-01-10T14:03:39.723Z,2.15
2023-01-10T14:06:32.766Z,2.30
2023-01-10T14:09:07.228Z,2.25
2023-01-10T14:11:49.064Z,2.28
2023-01-10T14:14:19.128Z,2.35
2023-01-10T14:16:48.015Z,2.30
2023-01-10T14:19:27.707Z,1.95
2023-01-10T14:21:55.990Z,2.40
2023-01-10T14:24:25.446Z,2.65
2023-01-10T14:26:57.207Z,2.10
2023-01-10T14:29:28.251Z,2.50
2023-01-10T14:31:56.496Z,2.50
2023-01-10T14:34:24.668Z,2.33
2023-01-10T14:36:58.972Z,2.38
2023-01-10T14:39:27.085Z,2.97
2023-01-10T14:41:55.820Z,2.83
2023-01-10T14:44:33.425Z,2.55
2023-01-10T14:47:02.991Z,2.92
2023-01-10T14:49:30.091Z,2.47
2023-01-10T14:52:11.831Z,2.17
2023-01-10T14:54:38.911Z,2.58
2023-01-10T14:57:16.648Z,2.35
2023-01-10T14:59:43.699Z,2.40
2023-01-10T15:02:21.022Z,2.17
2023-01-10T15:05:17.517Z,2.65
2023-01-10T15:07:44.596Z,2.70
2023-01-10T15:10:23.651Z,3.15
2023-01-10T15:12:53.342Z,3.10
2023-01-10T15:15:30.722Z,2.35
2023-01-10T15:18:00.028Z,2.13
2023-01-10T15:20:27.294Z,2.17
2023-01-10T15:22:59.109Z,2.15
2023-01-10T15:25:28.111Z,2.15
2023-01-10T15:27:56.443Z,2.38
2023-01-10T15:30:36.994Z,2.20
2023-01-10T15:33:06.137Z,1.95
2023-01-10T15:35:36.734Z,2.55
2023-01-10T15:38:07.121Z,2.60
2023-01-10T15:40:35.707Z,3.13
2023-01-10T15:43:12.450Z,2.90
2023-01-10T15:45:40.011Z,2.63
2023-01-10T15:48:25.404Z,2.30
2023-01-10T15:50:57.962Z,2.20
2023-01-10T15:53:45.112Z,2.38
2023-01-10T15:56:15.908Z,2.00
2023-01-10T15:58:43.563Z,2.47
2023-01-10T16:01:14.827Z,2.42
2023-01-10T16:03:46.422Z,1.90
2023-01-10T16:06:36.425Z,2.20
2023-01-10T16:09:08.076Z,2.38
2023-01-10T16:11:56.556Z,2.42
2023-01-10T16:14:23.712Z,1.95
2023-01-10T16:16:50.903Z,2.17
2023-01-10T16:19:18.057Z,2.38
2023-01-10T16:21:47.195Z,3.08
2023-01-10T16:24:18.908Z,2.10
2023-01-10T16:26:46.479Z,1.77
2023-01-10T16:29:13.718Z,1.50
2023-01-10T16:31:41.252Z,1.23
2023-01-10T16:34:08.867Z,1.60
2023-01-10T16:36:36.096Z,1.73
2023-01-10T16:39:06.328Z,1.70
2023-01-10T16:41:52.112Z,1.80
2023-01-10T16:44:19.376Z,1.58
2023-01-10T16:46:47.261Z,1.70
2023-01-10T16:49:15.715Z,1.60
2023-01-10T16:51:42.855Z,1.77
2023-01-10T16:54:14.363Z,1.48
2023-01-10T16:56:41.929Z,1.50
2023-01-10T16:59:09.131Z,1.58
2023-01-10T17:01:39.154Z,1.55
2023-01-10T17:04:07.259Z,1.30
2023-01-10T17:06:35.408Z,1.50
2023-01-10T17:09:02.606Z,1.70
2023-01-10T17:11:32.041Z,1.67
2023-01-10T17:13:59.707Z,1.50
2023-01-10T17:16:26.946Z,1.13
2023-01-10T17:18:54.046Z,1.50
2023-01-10T17:21:22.518Z,1.60
2023-01-10T17:23:50.291Z,1.50
2023-01-10T17:26:18.529Z,1.77
2023-01-10T17:28:46.489Z,1.55
2023-01-10T17:31:13.715Z,1.73
2023-01-10T17:33:40.807Z,1.40
2023-01-10T17:36:08.106Z,1.65
2023-01-10T17:38:35.158Z,1.73
2023-01-10T17:41:02.326Z,1.70
2023-01-10T17:43:30.076Z,1.50
2023-01-10T17:46:00.582Z,1.40
2023-01-10T17:48:27.801Z,1.40
2023-01-10T17:50:59.124Z,1.80
2023-01-10T17:53:26.616Z,1.80
2023-01-10T17:55:54.185Z,1.80
2023-01-10T17:58:21.701Z,1.98
2023-01-10T18:00:49.026Z,1.88
2023-01-10T18:03:16.768Z,1.92
2023-01-10T18:06:22.830Z,1.60
2023-01-10T18:08:50.343Z,2.38
2023-01-10T18:11:17.486Z,1.98
2023-01-10T18:13:44.577Z,2.85
2023-01-10T18:16:11.699Z,2.42
2023-01-10T18:18:39.095Z,2.70
2023-01-10T18:21:12.324Z,2.30
2023-01-10T18:23:39.456Z,2.55
2023-01-10T18:26:07.867Z,2.80
2023-01-10T18:28:41.803Z,2.80
2023-01-10T18:31:13.758Z,2.50
2023-01-10T18:33:40.978Z,2.50
2023-01-10T18:36:09.221Z,3.10
2023-01-10T18:38:37.428Z,2.92
2023-01-10T18:41:04.620Z,3.00
2023-01-10T18:43:32.842Z,3.10
2023-01-10T18:46:01.323Z,3.10
2023-01-10T18:48:28.530Z,2.67
2023-01-10T18:50:56.605Z,3.03
2023-01-10T18:53:23.763Z,3.22
2023-01-10T18:55:54.549Z,3.05
2023-01-10T18:58:25.252Z,3.30
2023-01-10T19:00:52.432Z,3.10
2023-01-10T19:03:19.985Z,3.80
2023-01-10T19:05:47.173Z,3.40
2023-01-10T19:08:14.558Z,3.33
2023-01-10T19:11:11.325Z,4.15
2023-01-10T19:13:32.378Z,4.10
2023-01-10T19:16:09.738Z,3.92
2023-01-10T19:18:36.848Z,3.72
2023-01-10T19:21:04.510Z,4.18
2023-01-10T19:23:31.650Z,3.80
2023-01-10T19:25:59.035Z,4.00
2023-01-10T19:28:29.786Z,3.53
2023-01-10T19:31:04.024Z,4.30
2023-01-10T19:33:34.182Z,3.60
2023-01-10T19:36:05.324Z,4.18
2023-01-10T19:38:32.474Z,2.97
2023-01-10T19:40:59.724Z,3.10
2023-01-10T19:43:26.799Z,3.70
2023-01-10T19:45:54.332Z,3.40
2023-01-10T19:48:22.520Z,3.67
2023-01-10T19:50:49.669Z,3.50
2023-01-10T19:53:16.813Z,3.78
2023-01-10T19:55:43.899Z,3.50
2023-01-10T19:58:10.982Z,3.40
2023-01-10T20:00:38.108Z,3.22
2023-01-10T20:03:07.599Z,3.85
2023-01-10T20:05:36.232Z,3.60
2023-01-10T20:08:04.821Z,4.38
2023-01-10T20:10:32.067Z,3.38
2023-01-10T20:12:59.126Z,3.88
2023-01-10T20:15:26.236Z,4.22
2023-01-10T20:17:53.489Z,3.80
2023-01-10T20:20:20.640Z,3.90
2023-01-10T20:22:48.327Z,4.03
2023-01-10T20:25:15.556Z,4.00
2023-01-10T20:27:42.660Z,3.67
2023-01-10T20:30:13.830Z,3.80
2023-01-10T20:32:41.029Z,4.32
2023-01-10T20:35:08.266Z,3.85
2023-01-10T20:37:35.452Z,3.60
2023-01-10T20:40:03.219Z,3.65
2023-01-10T20:42:32.746Z,3.67
2023-01-10T20:44:59.941Z,4.15
2023-01-10T20:47:28.506Z,3.90
2023-01-10T20:49:55.598Z,4.15
2023-01-10T20:52:23.061Z,3.97
2023-01-10T20:54:50.239Z,4.32
2023-01-10T20:57:17.496Z,3.92
2023-01-10T20:59:44.882Z,3.78
2023-01-10T21:02:12.188Z,3.55
2023-01-10T21:04:40.034Z,4.75
2023-01-10T21:07:07.234Z,3.90
2023-01-10T21:09:34.435Z,3.47
2023-01-10T21:12:13.793Z,4.13
2023-01-10T21:14:49.355Z,3.75
2023-01-10T21:17:16.586Z,3.50
2023-01-10T21:19:43.684Z,4.05
2023-01-10T21:22:10.814Z,4.03
2023-01-10T21:24:37.948Z,3.25
2023-01-10T21:27:05.044Z,4.35
2023-01-10T21:29:32.252Z,3.72
2023-01-10T21:31:59.415Z,3.88
2023-01-10T21:34:26.712Z,3.90
2023-01-10T21:36:54.401Z,3.90
2023-01-10T21:39:21.609Z,4.10
2023-01-10T21:42:07.604Z,3.60
2023-01-10T21:47:01.692Z,3.05
2023-01-10T21:49:28.857Z,3.65
2023-01-10T21:51:57.665Z,3.63
2023-01-10T21:54:24.996Z,2.85
2023-01-10T21:56:52.122Z,3.00
2023-01-10T21:59:19.337Z,2.80
2023-01-10T22:01:47.045Z,3.13
2023-01-10T22:04:17.132Z,3.00
2023-01-10T22:06:44.536Z,3.25
2023-01-10T22:09:11.653Z,2.95
2023-01-10T22:11:38.809Z,3.28
2023-01-10T22:14:05.965Z,3.17
2023-01-10T22:16:33.179Z,3.33
2023-01-10T22:19:00.348Z,3.20
2023-01-10T22:21:27.505Z,3.42
2023-01-10T22:23:54.678Z,3.50
2023-01-10T22:26:21.814Z,3.38
2023-01-10T22:28:48.988Z,3.72
2023-01-10T22:31:16.163Z,3.55
2023-01-10T22:33:43.292Z,3.63
2023-01-10T22:36:14.949Z,3.20
2023-01-10T22:38:42.029Z,3.92
2023-01-10T22:41:13.415Z,4.03
2023-01-10T22:43:40.523Z,4.18
2023-01-10T22:46:07.718Z,3.70
2023-01-10T22:48:38.714Z,3.97
2023-01-10T22:51:06.066Z,3.88
2023-01-10T22:53:33.661Z,4.28
2023-01-10T22:56:01.415Z,3.63
2023-01-10T22:58:29.036Z,4.50
2023-01-10T23:00:56.242Z,4.10
2023-01-10T23:03:23.771Z,4.22
2023-01-10T23:05:58.002Z,4.38
2023-01-10T23:08:25.537Z,4.35
2023-01-10T23:10:54.004Z,4.13
2023-01-10T23:13:21.667Z,4.75
2023-01-10T23:15:56.069Z,3.78
2023-01-10T23:18:23.411Z,4.45
2023-01-10T23:20:50.475Z,4.43
2023-01-10T23:23:17.542Z,4.10
2023-01-10T23:25:44.759Z,4.00
2023-01-10T23:28:12.263Z,4.10
2023-01-10T23:30:39.397Z,3.63
2023-01-10T23:33:06.482Z,3.75
2023-01-10T23:35:33.531Z,4.07
2023-01-10T23:38:00.628Z,3.63
2023-01-10T23:40:27.693Z,4.43
2023-01-10T23:42:54.778Z,3.53
2023-01-10T23:45:21.852Z,3.92
2023-01-10T23:47:48.970Z,3.78
2023-01-10T23:50:16.177Z,4.13
2023-01-10T23:52:43.255Z,4.35
2023-01-10T23:55:10.347Z,4.00
2023-01-10T23:57:37.469Z,3.88
